Terminal Aerodrome Forecast
Issued by NWS

Home | Current Version | Previous Version | Text Only | Print | Product List | Glossary Off
Versions: 1 2 3 4 5 6 7 8 9 10 11 12 13 14 15 16 17 18

649
FTUS43 KICT 211143
TAFSLN
TAF
KSLN 211143Z 2112/2212 01017KT P6SM OVC120
     FM212000 04013KT P6SM OVC080
     FM220200 07009KT 5SM -PLSN OVC025
     FM220500 06009KT 2SM -PLSN OVC013=

USA.gov is the U.S. government's official web portal to all federal, state and local government web resources and services.